sensor_id;sensor_type;location;lat;lon;timestamp;pressure;altitude;pressure_sealevel;temperature;humidity
30598;BME280;17365;48.878;8.334;2023-08-12T00:00:28;100219.72;;;22.01;83.11
30598;BME280;17365;48.878;8.334;2023-08-12T00:02:54;100222.66;;;21.94;83.64
30598;BME280;17365;48.878;8.334;2023-08-12T00:05:19;100211.00;;;21.99;83.32
30598;BME280;17365;48.878;8.334;2023-08-12T00:07:45;100208.88;;;21.87;83.83
30598;BME280;17365;48.878;8.334;2023-08-12T00:10:11;100211.25;;;21.93;83.37
30598;BME280;17365;48.878;8.334;2023-08-12T00:12:36;100214.59;;;21.97;83.38
30598;BME280;17365;48.878;8.334;2023-08-12T00:15:02;100210.41;;;21.93;83.76
30598;BME280;17365;48.878;8.334;2023-08-12T00:17:28;100209.13;;;22.01;82.99
30598;BME280;17365;48.878;8.334;2023-08-12T00:19:53;100201.03;;;22.06;82.77
30598;BME280;17365;48.878;8.334;2023-08-12T00:22:18;100198.44;;;22.04;83.20
30598;BME280;17365;48.878;8.334;2023-08-12T00:24:43;100192.69;;;21.95;83.37
30598;BME280;17365;48.878;8.334;2023-08-12T00:27:09;100189.53;;;21.87;84.04
30598;BME280;17365;48.878;8.334;2023-08-12T00:29:35;100185.69;;;21.94;83.33
30598;BME280;17365;48.878;8.334;2023-08-12T00:32:00;100180.16;;;22.00;82.64
30598;BME280;17365;48.878;8.334;2023-08-12T00:34:25;100184.75;;;21.95;83.20
30598;BME280;17365;48.878;8.334;2023-08-12T00:36:51;100182.66;;;21.83;84.39
30598;BME280;17365;48.878;8.334;2023-08-12T00:39:16;100185.75;;;21.72;85.31
30598;BME280;17365;48.878;8.334;2023-08-12T00:41:41;100178.50;;;21.57;86.76
30598;BME280;17365;48.878;8.334;2023-08-12T00:44:06;100177.91;;;21.70;85.87
30598;BME280;17365;48.878;8.334;2023-08-12T00:46:32;100185.69;;;21.73;85.25
30598;BME280;17365;48.878;8.334;2023-08-12T00:48:57;100185.75;;;21.72;84.94
30598;BME280;17365;48.878;8.334;2023-08-12T00:51:22;100186.94;;;21.85;83.94
30598;BME280;17365;48.878;8.334;2023-08-12T00:53:48;100185.84;;;21.91;83.66
30598;BME280;17365;48.878;8.334;2023-08-12T00:56:15;100184.84;;;21.93;83.54
30598;BME280;17365;48.878;8.334;2023-08-12T00:58:40;100196.94;;;21.99;83.49
30598;BME280;17365;48.878;8.334;2023-08-12T01:01:06;100195.00;;;22.02;83.40
30598;BME280;17365;48.878;8.334;2023-08-12T01:03:32;100201.75;;;21.89;84.54
30598;BME280;17365;48.878;8.334;2023-08-12T01:05:57;100209.28;;;21.98;83.86
30598;BME280;17365;48.878;8.334;2023-08-12T01:08:23;100213.81;;;21.95;84.75
30598;BME280;17365;48.878;8.334;2023-08-12T01:10:56;100212.09;;;21.94;84.76
30598;BME280;17365;48.878;8.334;2023-08-12T01:15:49;100223.28;;;22.00;84.61
30598;BME280;17365;48.878;8.334;2023-08-12T01:18:16;100226.84;;;21.99;84.75
30598;BME280;17365;48.878;8.334;2023-08-12T01:20:42;100227.16;;;21.92;85.13
30598;BME280;17365;48.878;8.334;2023-08-12T01:23:12;100225.91;;;21.80;85.68
30598;BME280;17365;48.878;8.334;2023-08-12T01:25:38;100235.03;;;21.51;86.89
30598;BME280;17365;48.878;8.334;2023-08-12T01:28:03;100222.19;;;21.43;88.27
30598;BME280;17365;48.878;8.334;2023-08-12T01:30:28;100228.91;;;21.29;88.12
30598;BME280;17365;48.878;8.334;2023-08-12T01:32:56;100224.50;;;21.29;88.09
30598;BME280;17365;48.878;8.334;2023-08-12T01:36:23;100227.31;;;21.25;88.93
30598;BME280;17365;48.878;8.334;2023-08-12T01:38:17;100225.53;;;21.47;87.11
30598;BME280;17365;48.878;8.334;2023-08-12T01:40:43;100223.34;;;21.36;87.23
30598;BME280;17365;48.878;8.334;2023-08-12T01:43:09;100227.31;;;21.46;86.91
30598;BME280;17365;48.878;8.334;2023-08-12T01:45:34;100221.34;;;21.63;86.19
30598;BME280;17365;48.878;8.334;2023-08-12T01:48:00;100224.78;;;21.65;85.72
30598;BME280;17365;48.878;8.334;2023-08-12T01:50:25;100226.38;;;21.69;85.18
30598;BME280;17365;48.878;8.334;2023-08-12T01:52:50;100228.53;;;21.60;85.06
30598;BME280;17365;48.878;8.334;2023-08-12T01:55:16;100242.78;;;21.56;85.35
30598;BME280;17365;48.878;8.334;2023-08-12T01:57:41;100238.09;;;21.42;86.04
30598;BME280;17365;48.878;8.334;2023-08-12T02:00:06;100245.72;;;21.70;85.24
30598;BME280;17365;48.878;8.334;2023-08-12T02:02:32;100238.84;;;21.66;85.28
30598;BME280;17365;48.878;8.334;2023-08-12T02:04:57;100237.00;;;21.68;85.39
30598;BME280;17365;48.878;8.334;2023-08-12T02:07:22;100239.34;;;21.74;85.18
30598;BME280;17365;48.878;8.334;2023-08-12T02:09:47;100243.47;;;21.81;84.78
30598;BME280;17365;48.878;8.334;2023-08-12T02:12:12;100243.22;;;21.87;84.27
30598;BME280;17365;48.878;8.334;2023-08-12T02:14:38;100235.34;;;21.86;84.02
30598;BME280;17365;48.878;8.334;2023-08-12T02:17:03;100227.09;;;21.73;84.56
30598;BME280;17365;48.878;8.334;2023-08-12T02:19:31;100218.91;;;21.79;84.58
30598;BME280;17365;48.878;8.334;2023-08-12T02:21:56;100215.72;;;21.71;85.60
30598;BME280;17365;48.878;8.334;2023-08-12T02:24:21;100217.91;;;21.82;85.15
30598;BME280;17365;48.878;8.334;2023-08-12T02:26:46;100212.06;;;21.75;85.48
30598;BME280;17365;48.878;8.334;2023-08-12T02:29:11;100224.66;;;21.89;84.52
30598;BME280;17365;48.878;8.334;2023-08-12T02:31:36;100219.47;;;21.87;84.38
30598;BME280;17365;48.878;8.334;2023-08-12T02:34:02;100219.03;;;21.96;83.95
30598;BME280;17365;48.878;8.334;2023-08-12T02:36:28;100214.34;;;22.03;83.12
30598;BME280;17365;48.878;8.334;2023-08-12T02:38:53;100215.97;;;22.07;82.29
30598;BME280;17365;48.878;8.334;2023-08-12T02:41:19;100204.47;;;22.08;81.99
30598;BME280;17365;48.878;8.334;2023-08-12T02:43:44;100200.06;;;22.08;81.41
30598;BME280;17365;48.878;8.334;2023-08-12T02:46:09;100207.63;;;22.16;81.25
30598;BME280;17365;48.878;8.334;2023-08-12T02:48:35;100200.41;;;22.20;80.56
30598;BME280;17365;48.878;8.334;2023-08-12T02:51:00;100199.50;;;22.21;81.06
30598;BME280;17365;48.878;8.334;2023-08-12T02:53:25;100192.94;;;22.29;81.29
30598;BME280;17365;48.878;8.334;2023-08-12T02:55:50;100194.38;;;22.36;80.92
30598;BME280;17365;48.878;8.334;2023-08-12T02:58:15;100185.69;;;22.34;80.45
30598;BME280;17365;48.878;8.334;2023-08-12T03:00:41;100178.44;;;22.38;80.98
30598;BME280;17365;48.878;8.334;2023-08-12T03:03:08;100177.75;;;22.34;81.37
30598;BME280;17365;48.878;8.334;2023-08-12T03:05:34;100173.00;;;22.22;80.92
30598;BME280;17365;48.878;8.334;2023-08-12T03:08:00;100178.38;;;22.21;81.00
30598;BME280;17365;48.878;8.334;2023-08-12T03:10:26;100169.38;;;22.25;80.63
30598;BME280;17365;48.878;8.334;2023-08-12T03:12:51;100167.66;;;22.24;80.56
30598;BME280;17365;48.878;8.334;2023-08-12T03:15:18;100156.00;;;22.28;80.75
30598;BME280;17365;48.878;8.334;2023-08-12T03:17:43;100157.88;;;22.26;80.39
30598;BME280;17365;48.878;8.334;2023-08-12T03:20:08;100153.88;;;22.36;80.18
30598;BME280;17365;48.878;8.334;2023-08-12T03:22:35;100150.16;;;22.40;80.45
30598;BME280;17365;48.878;8.334;2023-08-12T03:25:00;100157.03;;;22.44;80.40
30598;BME280;17365;48.878;8.334;2023-08-12T03:27:25;100164.44;;;22.36;81.33
30598;BME280;17365;48.878;8.334;2023-08-12T03:29:50;100164.44;;;22.36;82.81
30598;BME280;17365;48.878;8.334;2023-08-12T03:32:16;100166.94;;;22.39;82.60
30598;BME280;17365;48.878;8.334;2023-08-12T03:34:41;100172.16;;;22.41;83.04
30598;BME280;17365;48.878;8.334;2023-08-12T03:37:06;100167.59;;;22.44;83.22
30598;BME280;17365;48.878;8.334;2023-08-12T03:39:31;100173.59;;;22.48;83.82
30598;BME280;17365;48.878;8.334;2023-08-12T03:41:57;100171.03;;;22.46;85.18
30598;BME280;17365;48.878;8.334;2023-08-12T03:44:22;100165.03;;;22.43;86.25
30598;BME280;17365;48.878;8.334;2023-08-12T03:46:47;100171.31;;;22.40;86.16
30598;BME280;17365;48.878;8.334;2023-08-12T03:49:12;100167.88;;;22.38;85.55
30598;BME280;17365;48.878;8.334;2023-08-12T03:51:37;100165.53;;;22.32;85.98
30598;BME280;17365;48.878;8.334;2023-08-12T03:54:03;100160.25;;;22.32;85.33
30598;BME280;17365;48.878;8.334;2023-08-12T03:56:28;100157.53;;;22.33;86.13
30598;BME280;17365;48.878;8.334;2023-08-12T03:58:54;100162.88;;;22.32;86.82
30598;BME280;17365;48.878;8.334;2023-08-12T04:01:19;100160.78;;;22.20;88.26
30598;BME280;17365;48.878;8.334;2023-08-12T04:03:44;100167.72;;;22.22;88.10
30598;BME280;17365;48.878;8.334;2023-08-12T04:06:09;100166.94;;;22.00;90.15
30598;BME280;17365;48.878;8.334;2023-08-12T04:08:34;100156.88;;;22.10;89.24
30598;BME280;17365;48.878;8.334;2023-08-12T04:10:59;100149.06;;;22.06;90.12
30598;BME280;17365;48.878;8.334;2023-08-12T04:13:25;100159.72;;;22.03;91.33
30598;BME280;17365;48.878;8.334;2023-08-12T04:15:50;100155.31;;;21.84;93.47
30598;BME280;17365;48.878;8.334;2023-08-12T04:18:16;100155.84;;;21.71;94.74
30598;BME280;17365;48.878;8.334;2023-08-12T04:20:41;100162.28;;;21.86;93.18
30598;BME280;17365;48.878;8.334;2023-08-12T04:23:06;100160.22;;;21.72;94.94
30598;BME280;17365;48.878;8.334;2023-08-12T04:25:31;100170.13;;;21.88;93.26
30598;BME280;17365;48.878;8.334;2023-08-12T04:27:57;100170.97;;;21.88;94.29
30598;BME280;17365;48.878;8.334;2023-08-12T04:30:22;100158.72;;;21.87;93.19
30598;BME280;17365;48.878;8.334;2023-08-12T04:32:48;100152.03;;;21.58;97.06
30598;BME280;17365;48.878;8.334;2023-08-12T04:35:13;100164.31;;;21.59;97.80
30598;BME280;17365;48.878;8.334;2023-08-12T04:37:38;100162.06;;;21.70;96.99
30598;BME280;17365;48.878;8.334;2023-08-12T04:40:03;100161.41;;;21.65;98.49
30598;BME280;17365;48.878;8.334;2023-08-12T04:42:36;100168.88;;;21.56;99.54
30598;BME280;17365;48.878;8.334;2023-08-12T04:45:01;100180.38;;;21.75;97.04
30598;BME280;17365;48.878;8.334;2023-08-12T04:47:28;100163.84;;;21.90;96.01
30598;BME280;17365;48.878;8.334;2023-08-12T04:49:53;100162.59;;;21.99;95.32
30598;BME280;17365;48.878;8.334;2023-08-12T04:52:18;100156.16;;;22.04;95.23
30598;BME280;17365;48.878;8.334;2023-08-12T04:54:44;100150.84;;;22.06;94.53
30598;BME280;17365;48.878;8.334;2023-08-12T04:57:09;100145.47;;;22.07;94.44
30598;BME280;17365;48.878;8.334;2023-08-12T04:59:35;100140.59;;;21.98;95.82
30598;BME280;17365;48.878;8.334;2023-08-12T05:02:00;100148.53;;;21.98;96.58
30598;BME280;17365;48.878;8.334;2023-08-12T05:04:25;100134.09;;;22.05;95.52
30598;BME280;17365;48.878;8.334;2023-08-12T05:06:50;100138.41;;;22.08;95.61
30598;BME280;17365;48.878;8.334;2023-08-12T05:09:15;100140.06;;;22.11;95.51
30598;BME280;17365;48.878;8.334;2023-08-12T05:11:40;100148.22;;;22.04;96.86
30598;BME280;17365;48.878;8.334;2023-08-12T05:14:06;100154.22;;;21.69;98.15
30598;BME280;17365;48.878;8.334;2023-08-12T05:16:31;100144.94;;;21.99;95.66
30598;BME280;17365;48.878;8.334;2023-08-12T05:18:56;100157.38;;;21.97;94.11
30598;BME280;17365;48.878;8.334;2023-08-12T05:21:21;100146.50;;;21.44;100.00
30598;BME280;17365;48.878;8.334;2023-08-12T05:23:47;100144.44;;;21.50;100.00
30598;BME280;17365;48.878;8.334;2023-08-12T05:26:12;100157.19;;;21.82;99.08
30598;BME280;17365;48.878;8.334;2023-08-12T05:28:38;100159.03;;;21.59;100.00
30598;BME280;17365;48.878;8.334;2023-08-12T05:31:03;100164.75;;;21.48;100.00
30598;BME280;17365;48.878;8.334;2023-08-12T05:33:28;100159.75;;;21.63;100.00
30598;BME280;17365;48.878;8.334;2023-08-12T05:35:53;100156.00;;;21.89;98.72
30598;BME280;17365;48.878;8.334;2023-08-12T05:38:18;100161.06;;;21.93;97.72
30598;BME280;17365;48.878;8.334;2023-08-12T05:40:43;100159.28;;;22.14;96.36
30598;BME280;17365;48.878;8.334;2023-08-12T05:43:09;100158.94;;;22.22;96.09
30598;BME280;17365;48.878;8.334;2023-08-12T05:45:34;100161.81;;;22.36;95.51
30598;BME280;17365;48.878;8.334;2023-08-12T05:47:59;100162.88;;;22.32;95.75
30598;BME280;17365;48.878;8.334;2023-08-12T05:50:24;100165.91;;;22.43;94.69
30598;BME280;17365;48.878;8.334;2023-08-12T05:52:49;100161.09;;;22.51;93.96
30598;BME280;17365;48.878;8.334;2023-08-12T05:55:15;100162.16;;;22.47;94.07
30598;BME280;17365;48.878;8.334;2023-08-12T05:57:40;100163.38;;;22.59;93.62
30598;BME280;17365;48.878;8.334;2023-08-12T06:00:05;100165.09;;;22.22;95.90
30598;BME280;17365;48.878;8.334;2023-08-12T06:02:31;100173.09;;;22.40;94.58
30598;BME280;17365;48.878;8.334;2023-08-12T06:04:56;100179.63;;;22.12;96.39
30598;BME280;17365;48.878;8.334;2023-08-12T06:07:22;100194.16;;;21.82;99.04
30598;BME280;17365;48.878;8.334;2023-08-12T06:09:48;100185.75;;;21.92;99.71
30598;BME280;17365;48.878;8.334;2023-08-12T06:12:13;100179.56;;;22.14;98.41
30598;BME280;17365;48.878;8.334;2023-08-12T06:14:38;100183.59;;;22.41;96.19
30598;BME280;17365;48.878;8.334;2023-08-12T06:17:04;100185.06;;;22.28;96.36
30598;BME280;17365;48.878;8.334;2023-08-12T06:19:29;100181.81;;;22.79;93.05
30598;BME280;17365;48.878;8.334;2023-08-12T06:21:55;100187.13;;;22.79;93.86
30598;BME280;17365;48.878;8.334;2023-08-12T06:24:20;100183.69;;;22.96;92.73
30598;BME280;17365;48.878;8.334;2023-08-12T06:26:45;100177.69;;;22.92;91.71
30598;BME280;17365;48.878;8.334;2023-08-12T06:29:10;100173.69;;;23.20;89.99
30598;BME280;17365;48.878;8.334;2023-08-12T06:31:35;100167.88;;;23.31;89.17
30598;BME280;17365;48.878;8.334;2023-08-12T06:34:00;100168.97;;;23.44;88.17
30598;BME280;17365;48.878;8.334;2023-08-12T06:36:26;100173.88;;;22.98;87.88
30598;BME280;17365;48.878;8.334;2023-08-12T06:38:51;100168.22;;;23.06;86.83
30598;BME280;17365;48.878;8.334;2023-08-12T06:41:16;100171.06;;;23.37;85.72
30598;BME280;17365;48.878;8.334;2023-08-12T06:43:41;100161.91;;;23.08;86.05
30598;BME280;17365;48.878;8.334;2023-08-12T06:46:07;100163.38;;;23.50;85.59
30598;BME280;17365;48.878;8.334;2023-08-12T06:48:32;100164.16;;;23.35;85.96
30598;BME280;17365;48.878;8.334;2023-08-12T06:50:57;100162.56;;;23.31;84.86
30598;BME280;17365;48.878;8.334;2023-08-12T06:53:24;100161.31;;;23.55;84.81
30598;BME280;17365;48.878;8.334;2023-08-12T06:55:49;100161.25;;;23.39;85.10
30598;BME280;17365;48.878;8.334;2023-08-12T06:58:14;100159.97;;;23.83;83.84
30598;BME280;17365;48.878;8.334;2023-08-12T07:00:40;100163.63;;;23.63;82.74
30598;BME280;17365;48.878;8.334;2023-08-12T07:03:05;100165.13;;;23.68;83.18
30598;BME280;17365;48.878;8.334;2023-08-12T07:05:30;100173.53;;;24.09;83.02
30598;BME280;17365;48.878;8.334;2023-08-12T07:07:55;100171.84;;;24.08;83.15
30598;BME280;17365;48.878;8.334;2023-08-12T07:10:21;100168.34;;;24.41;82.05
30598;BME280;17365;48.878;8.334;2023-08-12T07:12:46;100172.47;;;24.47;79.89
30598;BME280;17365;48.878;8.334;2023-08-12T07:15:11;100171.44;;;24.65;79.34
30598;BME280;17365;48.878;8.334;2023-08-12T07:17:36;100175.13;;;24.78;75.77
30598;BME280;17365;48.878;8.334;2023-08-12T07:20:01;100174.13;;;25.42;74.82
30598;BME280;17365;48.878;8.334;2023-08-12T07:22:27;100167.91;;;25.73;73.37
30598;BME280;17365;48.878;8.334;2023-08-12T07:24:53;100172.69;;;25.67;72.63
30598;BME280;17365;48.878;8.334;2023-08-12T07:27:19;100173.66;;;25.20;76.04
30598;BME280;17365;48.878;8.334;2023-08-12T07:29:45;100166.72;;;25.47;74.09
30598;BME280;17365;48.878;8.334;2023-08-12T07:32:10;100165.47;;;25.09;75.17
30598;BME280;17365;48.878;8.334;2023-08-12T07:34:35;100160.56;;;25.47;73.07
30598;BME280;17365;48.878;8.334;2023-08-12T07:37:00;100159.78;;;25.61;71.11
30598;BME280;17365;48.878;8.334;2023-08-12T07:39:25;100156.03;;;25.79;71.37
30598;BME280;17365;48.878;8.334;2023-08-12T07:41:51;100166.66;;;25.93;70.15
30598;BME280;17365;48.878;8.334;2023-08-12T07:44:16;100161.34;;;25.93;71.10
30598;BME280;17365;48.878;8.334;2023-08-12T07:46:41;100160.22;;;25.97;71.09
30598;BME280;17365;48.878;8.334;2023-08-12T07:49:06;100162.50;;;25.89;70.85
30598;BME280;17365;48.878;8.334;2023-08-12T07:51:32;100161.03;;;25.69;70.56
30598;BME280;17365;48.878;8.334;2023-08-12T07:53:57;100155.47;;;25.74;70.09
30598;BME280;17365;48.878;8.334;2023-08-12T07:56:22;100152.53;;;25.48;71.55
30598;BME280;17365;48.878;8.334;2023-08-12T07:58:47;100145.19;;;25.82;70.62
30598;BME280;17365;48.878;8.334;2023-08-12T08:01:12;100143.88;;;25.75;71.27
30598;BME280;17365;48.878;8.334;2023-08-12T08:03:38;100153.97;;;25.54;72.31
30598;BME280;17365;48.878;8.334;2023-08-12T08:06:03;100148.06;;;25.79;71.57
30598;BME280;17365;48.878;8.334;2023-08-12T08:08:29;100149.53;;;25.69;72.63
30598;BME280;17365;48.878;8.334;2023-08-12T08:10:54;100146.09;;;25.82;72.44
30598;BME280;17365;48.878;8.334;2023-08-12T08:13:19;100137.25;;;26.10;72.10
30598;BME280;17365;48.878;8.334;2023-08-12T08:15:45;100134.53;;;26.40;71.22
30598;BME280;17365;48.878;8.334;2023-08-12T08:18:10;100138.31;;;25.49;73.89
30598;BME280;17365;48.878;8.334;2023-08-12T08:20:35;100140.19;;;26.20;72.54
30598;BME280;17365;48.878;8.334;2023-08-12T08:23:00;100141.22;;;26.03;72.59
30598;BME280;17365;48.878;8.334;2023-08-12T08:25:26;100131.19;;;26.37;71.56
30598;BME280;17365;48.878;8.334;2023-08-12T08:27:51;100136.59;;;26.21;72.37
30598;BME280;17365;48.878;8.334;2023-08-12T08:30:16;100136.88;;;26.02;72.50
30598;BME280;17365;48.878;8.334;2023-08-12T08:32:41;100134.09;;;25.90;73.19
30598;BME280;17365;48.878;8.334;2023-08-12T08:35:06;100125.22;;;26.05;71.59
30598;BME280;17365;48.878;8.334;2023-08-12T08:37:32;100134.59;;;26.25;70.95
30598;BME280;17365;48.878;8.334;2023-08-12T08:39:57;100134.75;;;26.36;69.77
30598;BME280;17365;48.878;8.334;2023-08-12T08:42:22;100121.81;;;26.58;68.62
30598;BME280;17365;48.878;8.334;2023-08-12T08:44:49;100130.53;;;26.05;69.73
30598;BME280;17365;48.878;8.334;2023-08-12T08:47:17;100126.78;;;26.50;69.67
30598;BME280;17365;48.878;8.334;2023-08-12T08:49:44;100121.13;;;26.69;68.42
30598;BME280;17365;48.878;8.334;2023-08-12T08:52:09;100124.66;;;27.23;67.58
30598;BME280;17365;48.878;8.334;2023-08-12T08:54:35;100134.28;;;27.66;66.35
30598;BME280;17365;48.878;8.334;2023-08-12T08:57:00;100138.13;;;28.00;64.47
30598;BME280;17365;48.878;8.334;2023-08-12T08:59:25;100132.50;;;27.52;63.87
30598;BME280;17365;48.878;8.334;2023-08-12T09:01:50;100134.38;;;27.90;64.13
30598;BME280;17365;48.878;8.334;2023-08-12T09:04:16;100135.97;;;27.79;62.77
30598;BME280;17365;48.878;8.334;2023-08-12T09:06:42;100123.59;;;27.91;62.87
30598;BME280;17365;48.878;8.334;2023-08-12T09:09:09;100126.13;;;28.18;60.89
30598;BME280;17365;48.878;8.334;2023-08-12T09:11:35;100120.31;;;27.88;60.85
30598;BME280;17365;48.878;8.334;2023-08-12T09:14:03;100119.50;;;27.47;61.70
30598;BME280;17365;48.878;8.334;2023-08-12T09:16:28;100128.28;;;28.00;61.26
30598;BME280;17365;48.878;8.334;2023-08-12T09:18:55;100132.94;;;27.59;62.77
30598;BME280;17365;48.878;8.334;2023-08-12T09:21:20;100142.28;;;27.91;63.16
30598;BME280;17365;48.878;8.334;2023-08-12T09:23:45;100152.81;;;27.80;62.76
30598;BME280;17365;48.878;8.334;2023-08-12T09:26:14;100159.00;;;28.19;63.01
30598;BME280;17365;48.878;8.334;2023-08-12T09:28:40;100149.63;;;27.88;62.38
30598;BME280;17365;48.878;8.334;2023-08-12T09:31:06;100142.72;;;27.45;64.17
30598;BME280;17365;48.878;8.334;2023-08-12T09:33:32;100140.53;;;27.25;65.25
30598;BME280;17365;48.878;8.334;2023-08-12T09:35:57;100137.47;;;27.83;63.97
30598;BME280;17365;48.878;8.334;2023-08-12T09:38:22;100134.16;;;27.67;64.55
30598;BME280;17365;48.878;8.334;2023-08-12T09:40:47;100129.22;;;28.37;61.88
30598;BME280;17365;48.878;8.334;2023-08-12T09:43:13;100123.59;;;28.66;60.64
30598;BME280;17365;48.878;8.334;2023-08-12T09:45:38;100125.22;;;28.92;60.89
30598;BME280;17365;48.878;8.334;2023-08-12T09:48:03;100121.34;;;28.36;62.26
30598;BME280;17365;48.878;8.334;2023-08-12T09:50:29;100117.25;;;28.80;61.37
30598;BME280;17365;48.878;8.334;2023-08-12T09:52:54;100113.84;;;28.41;61.27
30598;BME280;17365;48.878;8.334;2023-08-12T09:55:20;100116.44;;;28.04;62.76
30598;BME280;17365;48.878;8.334;2023-08-12T09:57:52;100122.88;;;27.89;62.98
30598;BME280;17365;48.878;8.334;2023-08-12T10:00:19;100115.09;;;28.48;61.04
30598;BME280;17365;48.878;8.334;2023-08-12T10:02:45;100114.28;;;28.71;60.58
30598;BME280;17365;48.878;8.334;2023-08-12T10:05:11;100116.94;;;28.48;61.95
30598;BME280;17365;48.878;8.334;2023-08-12T10:07:37;100119.75;;;28.21;62.71
30598;BME280;17365;48.878;8.334;2023-08-12T10:10:02;100117.97;;;28.58;61.93
30598;BME280;17365;48.878;8.334;2023-08-12T10:12:30;100120.03;;;28.78;60.65
30598;BME280;17365;48.878;8.334;2023-08-12T10:14:55;100128.28;;;28.13;62.21
30598;BME280;17365;48.878;8.334;2023-08-12T10:17:21;100131.56;;;28.42;62.21
30598;BME280;17365;48.878;8.334;2023-08-12T10:19:47;100132.97;;;28.71;60.40
30598;BME280;17365;48.878;8.334;2023-08-12T10:22:13;100130.50;;;28.19;61.42
30598;BME280;17365;48.878;8.334;2023-08-12T10:24:39;100126.31;;;28.40;61.52
30598;BME280;17365;48.878;8.334;2023-08-12T10:27:07;100137.16;;;29.23;59.85
30598;BME280;17365;48.878;8.334;2023-08-12T10:29:32;100144.22;;;29.01;59.00
30598;BME280;17365;48.878;8.334;2023-08-12T10:31:57;100146.88;;;29.48;57.05
30598;BME280;17365;48.878;8.334;2023-08-12T10:34:24;100144.50;;;29.44;56.84
30598;BME280;17365;48.878;8.334;2023-08-12T10:36:56;100148.84;;;29.34;56.86
30598;BME280;17365;48.878;8.334;2023-08-12T10:39:28;100137.75;;;29.27;54.96
30598;BME280;17365;48.878;8.334;2023-08-12T10:41:54;100157.09;;;29.07;55.83
30598;BME280;17365;48.878;8.334;2023-08-12T10:44:20;100164.50;;;29.27;56.50
30598;BME280;17365;48.878;8.334;2023-08-12T10:46:52;100172.97;;;28.97;57.19
30598;BME280;17365;48.878;8.334;2023-08-12T10:49:20;100193.28;;;27.99;58.02
30598;BME280;17365;48.878;8.334;2023-08-12T10:51:53;100199.75;;;27.82;59.22
30598;BME280;17365;48.878;8.334;2023-08-12T10:54:27;100187.72;;;27.50;66.11
30598;BME280;17365;48.878;8.334;2023-08-12T11:04:41;100166.91;;;26.47;83.11
30598;BME280;17365;48.878;8.334;2023-08-12T11:07:17;100159.75;;;26.48;83.32
30598;BME280;17365;48.878;8.334;2023-08-12T11:09:43;100145.97;;;26.12;86.36
30598;BME280;17365;48.878;8.334;2023-08-12T11:12:08;100130.59;;;26.32;86.34
30598;BME280;17365;48.878;8.334;2023-08-12T11:14:46;100127.69;;;26.78;84.89
30598;BME280;17365;48.878;8.334;2023-08-12T11:17:13;100133.44;;;27.38;83.35
30598;BME280;17365;48.878;8.334;2023-08-12T11:19:38;100129.28;;;27.87;82.94
30598;BME280;17365;48.878;8.334;2023-08-12T11:22:03;100130.81;;;28.40;79.70
30598;BME280;17365;48.878;8.334;2023-08-12T11:24:30;100140.69;;;27.89;82.58
30598;BME280;17365;48.878;8.334;2023-08-12T11:26:58;100150.09;;;27.42;83.77
30598;BME280;17365;48.878;8.334;2023-08-12T11:29:24;100153.63;;;27.55;81.97
30598;BME280;17365;48.878;8.334;2023-08-12T11:31:49;100161.28;;;27.07;81.00
30598;BME280;17365;48.878;8.334;2023-08-12T11:34:15;100161.72;;;26.73;84.12
30598;BME280;17365;48.878;8.334;2023-08-12T11:36:41;100167.75;;;26.48;84.78
30598;BME280;17365;48.878;8.334;2023-08-12T11:39:07;100171.03;;;26.80;84.12
30598;BME280;17365;48.878;8.334;2023-08-12T11:41:33;100170.97;;;28.00;78.74
30598;BME280;17365;48.878;8.334;2023-08-12T11:43:58;100171.06;;;28.11;78.91
30598;BME280;17365;48.878;8.334;2023-08-12T11:46:24;100162.44;;;27.43;81.61
30598;BME280;17365;48.878;8.334;2023-08-12T11:48:49;100157.19;;;27.94;79.77
30598;BME280;17365;48.878;8.334;2023-08-12T11:51:15;100143.97;;;27.92;79.68
30598;BME280;17365;48.878;8.334;2023-08-12T11:53:40;100136.91;;;28.29;78.47
30598;BME280;17365;48.878;8.334;2023-08-12T11:56:05;100131.13;;;28.48;75.73
30598;BME280;17365;48.878;8.334;2023-08-12T11:58:36;100137.50;;;28.58;75.52
30598;BME280;17365;48.878;8.334;2023-08-12T12:01:02;100131.13;;;28.48;75.02
30598;BME280;17365;48.878;8.334;2023-08-12T12:03:27;100131.25;;;28.47;76.25
30598;BME280;17365;48.878;8.334;2023-08-12T12:05:55;100126.97;;;27.55;77.07
30598;BME280;17365;48.878;8.334;2023-08-12T12:08:20;100121.31;;;27.47;76.50
30598;BME280;17365;48.878;8.334;2023-08-12T12:10:45;100132.97;;;28.22;74.79
30598;BME280;17365;48.878;8.334;2023-08-12T12:13:10;100128.69;;;28.45;73.43
30598;BME280;17365;48.878;8.334;2023-08-12T12:15:38;100133.56;;;28.88;69.12
30598;BME280;17365;48.878;8.334;2023-08-12T12:18:08;100127.97;;;28.67;70.96
30598;BME280;17365;48.878;8.334;2023-08-12T12:20:34;100142.59;;;28.12;69.21
30598;BME280;17365;48.878;8.334;2023-08-12T12:23:04;100145.78;;;28.30;68.68
30598;BME280;17365;48.878;8.334;2023-08-12T12:25:30;100134.28;;;28.66;66.87
30598;BME280;17365;48.878;8.334;2023-08-12T12:27:56;100125.25;;;28.56;66.26
30598;BME280;17365;48.878;8.334;2023-08-12T12:30:21;100130.41;;;28.70;64.42
30598;BME280;17365;48.878;8.334;2023-08-12T12:32:46;100128.84;;;28.67;64.76
30598;BME280;17365;48.878;8.334;2023-08-12T12:35:12;100136.84;;;28.67;65.46
30598;BME280;17365;48.878;8.334;2023-08-12T12:37:37;100130.56;;;28.92;65.22
30598;BME280;17365;48.878;8.334;2023-08-12T12:40:03;100124.16;;;29.30;66.44
30598;BME280;17365;48.878;8.334;2023-08-12T12:42:28;100132.63;;;29.13;68.05
30598;BME280;17365;48.878;8.334;2023-08-12T12:44:54;100133.81;;;28.23;67.54
30598;BME280;17365;48.878;8.334;2023-08-12T12:47:19;100133.72;;;28.74;66.06
30598;BME280;17365;48.878;8.334;2023-08-12T12:49:44;100131.78;;;28.76;65.89
30598;BME280;17365;48.878;8.334;2023-08-12T12:52:10;100130.72;;;29.26;64.77